sensor_id;sensor_type;location;lat;lon;timestamp;P1;durP1;ratioP1;P2;durP2;ratioP2
61960;SDS011;47923;42.506;24.192;2023-08-06T00:00:45;8.73;;;3.88;;
61960;SDS011;47923;42.506;24.192;2023-08-06T00:03:17;7.15;;;3.65;;
61960;SDS011;47923;42.506;24.192;2023-08-06T00:05:50;6.20;;;3.53;;
61960;SDS011;47923;42.506;24.192;2023-08-06T00:08:19;7.68;;;3.80;;
61960;SDS011;47923;42.506;24.192;2023-08-06T00:13:50;7.43;;;3.35;;
61960;SDS011;47923;42.506;24.192;2023-08-06T00:16:28;8.88;;;3.83;;
61960;SDS011;47923;42.506;24.192;2023-08-06T00:19:07;7.90;;;3.90;;
61960;SDS011;47923;42.506;24.192;2023-08-06T00:21:58;10.00;;;4.32;;
61960;SDS011;47923;42.506;24.192;2023-08-06T00:24:34;7.35;;;3.92;;
61960;SDS011;47923;42.506;24.192;2023-08-06T00:27:14;7.32;;;4.28;;
61960;SDS011;47923;42.506;24.192;2023-08-06T00:29:45;7.30;;;4.20;;
61960;SDS011;47923;42.506;24.192;2023-08-06T00:32:21;9.60;;;4.72;;
61960;SDS011;47923;42.506;24.192;2023-08-06T00:34:47;7.35;;;3.97;;
61960;SDS011;47923;42.506;24.192;2023-08-06T00:37:15;9.45;;;5.28;;
61960;SDS011;47923;42.506;24.192;2023-08-06T00:39:41;11.35;;;5.68;;
61960;SDS011;47923;42.506;24.192;2023-08-06T00:42:07;8.95;;;5.07;;
61960;SDS011;47923;42.506;24.192;2023-08-06T00:44:32;11.18;;;5.70;;
61960;SDS011;47923;42.506;24.192;2023-08-06T00:46:58;8.88;;;5.07;;
61960;SDS011;47923;42.506;24.192;2023-08-06T00:49:23;11.07;;;5.93;;
61960;SDS011;47923;42.506;24.192;2023-08-06T00:51:49;10.45;;;5.85;;
61960;SDS011;47923;42.506;24.192;2023-08-06T00:54:15;12.10;;;5.80;;
61960;SDS011;47923;42.506;24.192;2023-08-06T00:56:41;10.98;;;5.90;;
61960;SDS011;47923;42.506;24.192;2023-08-06T00:59:07;10.57;;;5.88;;
61960;SDS011;47923;42.506;24.192;2023-08-06T01:01:34;10.25;;;5.53;;
61960;SDS011;47923;42.506;24.192;2023-08-06T01:04:00;8.45;;;5.22;;
61960;SDS011;47923;42.506;24.192;2023-08-06T01:06:39;11.43;;;5.13;;
61960;SDS011;47923;42.506;24.192;2023-08-06T01:09:34;9.23;;;4.85;;
61960;SDS011;47923;42.506;24.192;2023-08-06T01:17:32;10.55;;;5.85;;
61960;SDS011;47923;42.506;24.192;2023-08-06T01:19:59;10.95;;;5.55;;
61960;SDS011;47923;42.506;24.192;2023-08-06T01:22:24;8.60;;;6.03;;
61960;SDS011;47923;42.506;24.192;2023-08-06T01:24:50;13.85;;;6.68;;
61960;SDS011;47923;42.506;24.192;2023-08-06T01:27:23;12.73;;;6.10;;
61960;SDS011;47923;42.506;24.192;2023-08-06T01:29:58;9.65;;;5.97;;
61960;SDS011;47923;42.506;24.192;2023-08-06T01:32:49;14.70;;;6.45;;
61960;SDS011;47923;42.506;24.192;2023-08-06T01:35:19;11.80;;;7.15;;
61960;SDS011;47923;42.506;24.192;2023-08-06T01:37:46;11.32;;;7.07;;
61960;SDS011;47923;42.506;24.192;2023-08-06T01:40:12;9.95;;;6.80;;
61960;SDS011;47923;42.506;24.192;2023-08-06T01:42:38;8.73;;;5.85;;
61960;SDS011;47923;42.506;24.192;2023-08-06T01:45:05;10.32;;;5.70;;
61960;SDS011;47923;42.506;24.192;2023-08-06T01:47:31;12.13;;;6.20;;
61960;SDS011;47923;42.506;24.192;2023-08-06T01:49:57;11.13;;;6.18;;
61960;SDS011;47923;42.506;24.192;2023-08-06T01:52:22;8.95;;;5.72;;
61960;SDS011;47923;42.506;24.192;2023-08-06T01:54:48;7.70;;;4.75;;
61960;SDS011;47923;42.506;24.192;2023-08-06T01:57:13;8.30;;;5.18;;
61960;SDS011;47923;42.506;24.192;2023-08-06T01:59:39;8.60;;;5.20;;
61960;SDS011;47923;42.506;24.192;2023-08-06T02:02:04;10.27;;;5.53;;
61960;SDS011;47923;42.506;24.192;2023-08-06T02:04:30;8.50;;;4.72;;
61960;SDS011;47923;42.506;24.192;2023-08-06T02:06:55;12.73;;;6.07;;
61960;SDS011;47923;42.506;24.192;2023-08-06T02:09:20;8.48;;;5.43;;
61960;SDS011;47923;42.506;24.192;2023-08-06T02:11:46;11.38;;;5.57;;
61960;SDS011;47923;42.506;24.192;2023-08-06T02:14:11;10.25;;;6.28;;
61960;SDS011;47923;42.506;24.192;2023-08-06T02:16:37;9.85;;;5.47;;
61960;SDS011;47923;42.506;24.192;2023-08-06T02:19:03;7.80;;;5.68;;
61960;SDS011;47923;42.506;24.192;2023-08-06T02:21:28;11.38;;;5.93;;
61960;SDS011;47923;42.506;24.192;2023-08-06T02:23:53;10.20;;;6.05;;
61960;SDS011;47923;42.506;24.192;2023-08-06T02:26:19;9.65;;;7.18;;
61960;SDS011;47923;42.506;24.192;2023-08-06T02:28:44;10.38;;;6.53;;
61960;SDS011;47923;42.506;24.192;2023-08-06T02:31:10;11.25;;;6.80;;
61960;SDS011;47923;42.506;24.192;2023-08-06T02:33:35;13.13;;;7.68;;
61960;SDS011;47923;42.506;24.192;2023-08-06T02:36:01;11.55;;;6.65;;
61960;SDS011;47923;42.506;24.192;2023-08-06T02:38:28;17.15;;;8.38;;
61960;SDS011;47923;42.506;24.192;2023-08-06T02:40:54;22.38;;;9.75;;
61960;SDS011;47923;42.506;24.192;2023-08-06T02:43:19;15.43;;;8.57;;
61960;SDS011;47923;42.506;24.192;2023-08-06T02:45:45;17.15;;;7.70;;
61960;SDS011;47923;42.506;24.192;2023-08-06T02:48:11;11.68;;;7.95;;
61960;SDS011;47923;42.506;24.192;2023-08-06T02:50:39;14.18;;;8.20;;
61960;SDS011;47923;42.506;24.192;2023-08-06T02:53:06;11.82;;;6.85;;
61960;SDS011;47923;42.506;24.192;2023-08-06T02:55:32;12.02;;;7.40;;
61960;SDS011;47923;42.506;24.192;2023-08-06T02:57:59;13.45;;;7.22;;
61960;SDS011;47923;42.506;24.192;2023-08-06T03:00:25;12.40;;;8.38;;
61960;SDS011;47923;42.506;24.192;2023-08-06T03:02:50;10.20;;;6.80;;
61960;SDS011;47923;42.506;24.192;2023-08-06T03:05:16;10.23;;;6.40;;
61960;SDS011;47923;42.506;24.192;2023-08-06T03:07:41;12.95;;;8.48;;
61960;SDS011;47923;42.506;24.192;2023-08-06T03:10:07;12.80;;;7.78;;
61960;SDS011;47923;42.506;24.192;2023-08-06T03:12:32;13.75;;;8.38;;
61960;SDS011;47923;42.506;24.192;2023-08-06T03:14:58;13.50;;;8.95;;
61960;SDS011;47923;42.506;24.192;2023-08-06T03:17:23;15.07;;;8.50;;
61960;SDS011;47923;42.506;24.192;2023-08-06T03:19:49;14.02;;;9.18;;
61960;SDS011;47923;42.506;24.192;2023-08-06T03:22:14;12.23;;;8.05;;
61960;SDS011;47923;42.506;24.192;2023-08-06T03:24:40;13.18;;;7.85;;
61960;SDS011;47923;42.506;24.192;2023-08-06T03:27:05;10.15;;;7.38;;
61960;SDS011;47923;42.506;24.192;2023-08-06T03:29:30;11.95;;;8.23;;
61960;SDS011;47923;42.506;24.192;2023-08-06T03:31:56;10.82;;;7.95;;
61960;SDS011;47923;42.506;24.192;2023-08-06T03:34:21;13.70;;;8.60;;
61960;SDS011;47923;42.506;24.192;2023-08-06T03:36:47;13.52;;;9.55;;
61960;SDS011;47923;42.506;24.192;2023-08-06T03:39:12;12.00;;;8.93;;
61960;SDS011;47923;42.506;24.192;2023-08-06T03:41:39;12.45;;;7.70;;
61960;SDS011;47923;42.506;24.192;2023-08-06T03:44:04;11.55;;;7.10;;
61960;SDS011;47923;42.506;24.192;2023-08-06T03:46:30;10.98;;;6.97;;
61960;SDS011;47923;42.506;24.192;2023-08-06T03:49:02;10.88;;;7.53;;
61960;SDS011;47923;42.506;24.192;2023-08-06T03:51:27;12.55;;;7.75;;
61960;SDS011;47923;42.506;24.192;2023-08-06T03:53:53;11.48;;;8.13;;
61960;SDS011;47923;42.506;24.192;2023-08-06T03:56:19;15.70;;;7.75;;
61960;SDS011;47923;42.506;24.192;2023-08-06T03:58:44;10.05;;;7.03;;
61960;SDS011;47923;42.506;24.192;2023-08-06T04:01:09;10.13;;;6.28;;
61960;SDS011;47923;42.506;24.192;2023-08-06T04:03:35;12.50;;;6.93;;
61960;SDS011;47923;42.506;24.192;2023-08-06T04:06:02;10.80;;;6.68;;
61960;SDS011;47923;42.506;24.192;2023-08-06T04:08:28;9.73;;;6.60;;
61960;SDS011;47923;42.506;24.192;2023-08-06T04:10:53;10.50;;;6.35;;
61960;SDS011;47923;42.506;24.192;2023-08-06T04:13:19;9.20;;;6.38;;
61960;SDS011;47923;42.506;24.192;2023-08-06T04:15:45;11.68;;;6.28;;
61960;SDS011;47923;42.506;24.192;2023-08-06T04:18:12;9.10;;;6.60;;
61960;SDS011;47923;42.506;24.192;2023-08-06T04:20:47;11.38;;;7.40;;
61960;SDS011;47923;42.506;24.192;2023-08-06T04:23:14;9.70;;;6.03;;
61960;SDS011;47923;42.506;24.192;2023-08-06T04:25:40;11.32;;;5.45;;
61960;SDS011;47923;42.506;24.192;2023-08-06T04:28:06;7.93;;;4.65;;
61960;SDS011;47923;42.506;24.192;2023-08-06T04:30:32;8.52;;;5.28;;
61960;SDS011;47923;42.506;24.192;2023-08-06T04:32:57;7.20;;;4.72;;
61960;SDS011;47923;42.506;24.192;2023-08-06T04:35:23;8.70;;;4.85;;
61960;SDS011;47923;42.506;24.192;2023-08-06T04:37:49;8.65;;;4.65;;
61960;SDS011;47923;42.506;24.192;2023-08-06T04:40:14;7.70;;;4.68;;
61960;SDS011;47923;42.506;24.192;2023-08-06T04:42:39;9.13;;;4.45;;
61960;SDS011;47923;42.506;24.192;2023-08-06T04:45:05;9.38;;;4.30;;
61960;SDS011;47923;42.506;24.192;2023-08-06T04:47:31;9.02;;;4.72;;
61960;SDS011;47923;42.506;24.192;2023-08-06T04:49:57;7.50;;;4.75;;
61960;SDS011;47923;42.506;24.192;2023-08-06T04:52:22;12.02;;;4.85;;
61960;SDS011;47923;42.506;24.192;2023-08-06T04:54:48;10.40;;;4.15;;
61960;SDS011;47923;42.506;24.192;2023-08-06T04:57:13;13.30;;;4.75;;
61960;SDS011;47923;42.506;24.192;2023-08-06T04:59:39;16.10;;;7.03;;
61960;SDS011;47923;42.506;24.192;2023-08-06T05:02:05;19.83;;;8.10;;
61960;SDS011;47923;42.506;24.192;2023-08-06T05:04:30;12.80;;;6.15;;
61960;SDS011;47923;42.506;24.192;2023-08-06T05:06:56;13.63;;;6.43;;
61960;SDS011;47923;42.506;24.192;2023-08-06T05:09:21;16.02;;;8.30;;
61960;SDS011;47923;42.506;24.192;2023-08-06T05:11:47;14.65;;;8.63;;
61960;SDS011;47923;42.506;24.192;2023-08-06T05:14:13;17.02;;;9.07;;
61960;SDS011;47923;42.506;24.192;2023-08-06T05:16:38;17.70;;;10.60;;
61960;SDS011;47923;42.506;24.192;2023-08-06T05:19:04;22.35;;;11.10;;
61960;SDS011;47923;42.506;24.192;2023-08-06T05:21:29;20.10;;;11.13;;
61960;SDS011;47923;42.506;24.192;2023-08-06T05:23:55;15.60;;;10.63;;
61960;SDS011;47923;42.506;24.192;2023-08-06T05:26:20;13.15;;;10.07;;
61960;SDS011;47923;42.506;24.192;2023-08-06T05:28:46;15.25;;;11.38;;
61960;SDS011;47923;42.506;24.192;2023-08-06T05:31:12;14.00;;;11.05;;
61960;SDS011;47923;42.506;24.192;2023-08-06T05:33:37;15.65;;;11.25;;
61960;SDS011;47923;42.506;24.192;2023-08-06T05:36:03;14.27;;;10.40;;
61960;SDS011;47923;42.506;24.192;2023-08-06T05:38:29;16.40;;;11.80;;
61960;SDS011;47923;42.506;24.192;2023-08-06T05:40:55;14.90;;;11.07;;
61960;SDS011;47923;42.506;24.192;2023-08-06T05:43:21;14.32;;;11.50;;
61960;SDS011;47923;42.506;24.192;2023-08-06T05:45:49;15.93;;;11.52;;
61960;SDS011;47923;42.506;24.192;2023-08-06T05:48:15;16.70;;;11.80;;
61960;SDS011;47923;42.506;24.192;2023-08-06T05:50:40;13.15;;;9.50;;
61960;SDS011;47923;42.506;24.192;2023-08-06T05:53:06;13.90;;;10.40;;
61960;SDS011;47923;42.506;24.192;2023-08-06T05:55:31;13.88;;;9.25;;
61960;SDS011;47923;42.506;24.192;2023-08-06T05:57:58;13.85;;;9.20;;
61960;SDS011;47923;42.506;24.192;2023-08-06T06:00:23;13.23;;;10.35;;
61960;SDS011;47923;42.506;24.192;2023-08-06T06:02:49;12.60;;;9.02;;
61960;SDS011;47923;42.506;24.192;2023-08-06T06:05:14;14.50;;;9.25;;
61960;SDS011;47923;42.506;24.192;2023-08-06T06:07:40;13.45;;;8.60;;
61960;SDS011;47923;42.506;24.192;2023-08-06T06:10:05;12.45;;;8.93;;
61960;SDS011;47923;42.506;24.192;2023-08-06T06:12:31;11.63;;;8.10;;
61960;SDS011;47923;42.506;24.192;2023-08-06T06:14:57;12.23;;;7.95;;
61960;SDS011;47923;42.506;24.192;2023-08-06T06:17:22;10.40;;;7.35;;
61960;SDS011;47923;42.506;24.192;2023-08-06T06:19:48;11.18;;;7.53;;
61960;SDS011;47923;42.506;24.192;2023-08-06T06:22:13;13.30;;;8.85;;
61960;SDS011;47923;42.506;24.192;2023-08-06T06:24:39;13.48;;;9.30;;
61960;SDS011;47923;42.506;24.192;2023-08-06T06:27:05;12.48;;;8.85;;
61960;SDS011;47923;42.506;24.192;2023-08-06T06:29:30;12.90;;;8.35;;
61960;SDS011;47923;42.506;24.192;2023-08-06T06:31:56;11.27;;;6.95;;
61960;SDS011;47923;42.506;24.192;2023-08-06T06:34:21;10.93;;;7.10;;
61960;SDS011;47923;42.506;24.192;2023-08-06T06:36:47;25.58;;;15.57;;
61960;SDS011;47923;42.506;24.192;2023-08-06T06:39:13;39.67;;;26.17;;
61960;SDS011;47923;42.506;24.192;2023-08-06T06:41:38;37.22;;;24.73;;
61960;SDS011;47923;42.506;24.192;2023-08-06T06:44:04;38.15;;;28.33;;
61960;SDS011;47923;42.506;24.192;2023-08-06T06:46:30;21.98;;;14.05;;
61960;SDS011;47923;42.506;24.192;2023-08-06T06:48:55;12.20;;;8.13;;
61960;SDS011;47923;42.506;24.192;2023-08-06T06:51:21;12.05;;;6.65;;
61960;SDS011;47923;42.506;24.192;2023-08-06T06:53:46;9.98;;;5.32;;
61960;SDS011;47923;42.506;24.192;2023-08-06T06:56:12;8.88;;;5.43;;
61960;SDS011;47923;42.506;24.192;2023-08-06T06:58:37;11.90;;;6.95;;
61960;SDS011;47923;42.506;24.192;2023-08-06T07:01:04;8.48;;;5.57;;
61960;SDS011;47923;42.506;24.192;2023-08-06T07:03:30;8.65;;;5.95;;
61960;SDS011;47923;42.506;24.192;2023-08-06T07:05:58;9.15;;;6.80;;
61960;SDS011;47923;42.506;24.192;2023-08-06T07:08:24;11.63;;;4.95;;
61960;SDS011;47923;42.506;24.192;2023-08-06T07:10:50;6.65;;;4.38;;
61960;SDS011;47923;42.506;24.192;2023-08-06T07:13:16;5.75;;;3.72;;
61960;SDS011;47923;42.506;24.192;2023-08-06T07:15:41;7.13;;;4.60;;
61960;SDS011;47923;42.506;24.192;2023-08-06T07:18:07;6.47;;;4.13;;
61960;SDS011;47923;42.506;24.192;2023-08-06T07:20:33;7.20;;;4.03;;
61960;SDS011;47923;42.506;24.192;2023-08-06T07:22:59;5.03;;;3.38;;
61960;SDS011;47923;42.506;24.192;2023-08-06T07:25:25;5.65;;;3.38;;
61960;SDS011;47923;42.506;24.192;2023-08-06T07:27:51;9.88;;;3.95;;
61960;SDS011;47923;42.506;24.192;2023-08-06T07:30:16;8.90;;;3.10;;
61960;SDS011;47923;42.506;24.192;2023-08-06T07:32:42;6.82;;;3.47;;
61960;SDS011;47923;42.506;24.192;2023-08-06T07:35:07;8.13;;;2.83;;
61960;SDS011;47923;42.506;24.192;2023-08-06T07:37:37;18.42;;;3.85;;
61960;SDS011;47923;42.506;24.192;2023-08-06T07:40:03;9.52;;;3.30;;
61960;SDS011;47923;42.506;24.192;2023-08-06T07:42:29;15.10;;;3.25;;
61960;SDS011;47923;42.506;24.192;2023-08-06T07:44:55;16.60;;;3.78;;
61960;SDS011;47923;42.506;24.192;2023-08-06T07:47:21;7.80;;;3.00;;
61960;SDS011;47923;42.506;24.192;2023-08-06T07:49:47;8.38;;;2.55;;
61960;SDS011;47923;42.506;24.192;2023-08-06T07:52:13;9.68;;;2.70;;
61960;SDS011;47923;42.506;24.192;2023-08-06T07:54:38;22.40;;;4.57;;
61960;SDS011;47923;42.506;24.192;2023-08-06T07:57:04;4.90;;;2.00;;
61960;SDS011;47923;42.506;24.192;2023-08-06T07:59:30;3.40;;;2.15;;
61960;SDS011;47923;42.506;24.192;2023-08-06T08:01:55;21.25;;;3.70;;
61960;SDS011;47923;42.506;24.192;2023-08-06T08:04:21;7.63;;;2.72;;
61960;SDS011;47923;42.506;24.192;2023-08-06T08:06:47;10.02;;;3.15;;
61960;SDS011;47923;42.506;24.192;2023-08-06T08:09:12;14.40;;;3.42;;
61960;SDS011;47923;42.506;24.192;2023-08-06T08:11:39;21.02;;;4.60;;
61960;SDS011;47923;42.506;24.192;2023-08-06T08:14:04;7.03;;;2.85;;
61960;SDS011;47923;42.506;24.192;2023-08-06T08:16:30;4.53;;;2.28;;
61960;SDS011;47923;42.506;24.192;2023-08-06T08:18:55;4.75;;;2.15;;
61960;SDS011;47923;42.506;24.192;2023-08-06T08:21:21;7.43;;;2.00;;
61960;SDS011;47923;42.506;24.192;2023-08-06T08:23:46;2.38;;;1.35;;
61960;SDS011;47923;42.506;24.192;2023-08-06T08:26:12;2.40;;;1.40;;
61960;SDS011;47923;42.506;24.192;2023-08-06T08:28:37;16.73;;;3.03;;
61960;SDS011;47923;42.506;24.192;2023-08-06T08:31:03;4.25;;;1.77;;
61960;SDS011;47923;42.506;24.192;2023-08-06T08:33:28;16.77;;;2.88;;
61960;SDS011;47923;42.506;24.192;2023-08-06T08:35:54;6.03;;;1.98;;
61960;SDS011;47923;42.506;24.192;2023-08-06T08:38:19;20.30;;;3.30;;
61960;SDS011;47923;42.506;24.192;2023-08-06T08:40:48;9.40;;;2.80;;
61960;SDS011;47923;42.506;24.192;2023-08-06T08:43:19;14.13;;;3.60;;
61960;SDS011;47923;42.506;24.192;2023-08-06T08:45:49;9.70;;;3.65;;
61960;SDS011;47923;42.506;24.192;2023-08-06T08:48:17;6.45;;;2.75;;
61960;SDS011;47923;42.506;24.192;2023-08-06T08:50:47;7.25;;;2.65;;
61960;SDS011;47923;42.506;24.192;2023-08-06T08:53:13;19.80;;;5.30;;
61960;SDS011;47923;42.506;24.192;2023-08-06T08:55:40;14.57;;;3.30;;
61960;SDS011;47923;42.506;24.192;2023-08-06T08:58:07;43.33;;;6.70;;
61960;SDS011;47923;42.506;24.192;2023-08-06T09:00:34;5.43;;;2.78;;
61960;SDS011;47923;42.506;24.192;2023-08-06T09:03:00;31.10;;;6.60;;
61960;SDS011;47923;42.506;24.192;2023-08-06T09:05:28;4.13;;;2.80;;
61960;SDS011;47923;42.506;24.192;2023-08-06T09:07:56;15.68;;;4.13;;
61960;SDS011;47923;42.506;24.192;2023-08-06T09:10:28;11.07;;;3.45;;
61960;SDS011;47923;42.506;24.192;2023-08-06T09:12:54;12.75;;;3.70;;
61960;SDS011;47923;42.506;24.192;2023-08-06T09:15:24;5.35;;;3.38;;
61960;SDS011;47923;42.506;24.192;2023-08-06T09:17:51;19.25;;;4.55;;
61960;SDS011;47923;42.506;24.192;2023-08-06T09:20:20;9.82;;;3.47;;
61960;SDS011;47923;42.506;24.192;2023-08-06T09:22:46;7.68;;;2.97;;
61960;SDS011;47923;42.506;24.192;2023-08-06T09:25:13;11.13;;;3.45;;
61960;SDS011;47923;42.506;24.192;2023-08-06T09:27:46;7.97;;;3.25;;
61960;SDS011;47923;42.506;24.192;2023-08-06T09:30:12;3.20;;;2.35;;
61960;SDS011;47923;42.506;24.192;2023-08-06T09:32:55;6.85;;;2.50;;
61960;SDS011;47923;42.506;24.192;2023-08-06T09:35:21;10.43;;;3.00;;
61960;SDS011;47923;42.506;24.192;2023-08-06T09:37:46;9.68;;;3.65;;
61960;SDS011;47923;42.506;24.192;2023-08-06T09:42:54;3.85;;;1.95;;
61960;SDS011;47923;42.506;24.192;2023-08-06T09:45:20;7.95;;;2.70;;
61960;SDS011;47923;42.506;24.192;2023-08-06T09:47:49;5.18;;;1.90;;
61960;SDS011;47923;42.506;24.192;2023-08-06T09:50:19;3.63;;;1.95;;
61960;SDS011;47923;42.506;24.192;2023-08-06T09:52:46;3.42;;;1.65;;
61960;SDS011;47923;42.506;24.192;2023-08-06T09:55:15;13.80;;;2.40;;
61960;SDS011;47923;42.506;24.192;2023-08-06T09:57:41;10.93;;;2.40;;
61960;SDS011;47923;42.506;24.192;2023-08-06T10:00:08;4.35;;;1.60;;
61960;SDS011;47923;42.506;24.192;2023-08-06T10:02:36;5.70;;;1.85;;
61960;SDS011;47923;42.506;24.192;2023-08-06T10:05:03;7.18;;;1.55;;
61960;SDS011;47923;42.506;24.192;2023-08-06T10:07:29;11.30;;;2.55;;
61960;SDS011;47923;42.506;24.192;2023-08-06T10:09:55;8.48;;;1.83;;
61960;SDS011;47923;42.506;24.192;2023-08-06T10:12:21;3.10;;;1.23;;
61960;SDS011;47923;42.506;24.192;2023-08-06T10:14:50;8.43;;;1.98;;
61960;SDS011;47923;42.506;24.192;2023-08-06T10:17:18;3.95;;;1.52;;
61960;SDS011;47923;42.506;24.192;2023-08-06T10:19:45;1.50;;;1.10;;
61960;SDS011;47923;42.506;24.192;2023-08-06T10:22:12;3.15;;;1.60;;
61960;SDS011;47923;42.506;24.192;2023-08-06T10:24:53;1.92;;;1.38;;
61960;SDS011;47923;42.506;24.192;2023-08-06T10:32:51;3.22;;;1.58;;
61960;SDS011;47923;42.506;24.192;2023-08-06T10:38:15;2.40;;;1.30;;
61960;SDS011;47923;42.506;24.192;2023-08-06T10:43:31;7.03;;;1.77;;
61960;SDS011;47923;42.506;24.192;2023-08-06T10:46:04;3.85;;;1.70;;
61960;SDS011;47923;42.506;24.192;2023-08-06T10:48:38;11.27;;;2.50;;
61960;SDS011;47923;42.506;24.192;2023-08-06T10:51:12;8.18;;;2.00;;
61960;SDS011;47923;42.506;24.192;2023-08-06T10:53:43;8.77;;;2.42;;
61960;SDS011;47923;42.506;24.192;2023-08-06T10:58:40;7.80;;;2.63;;
61960;SDS011;47923;42.506;24.192;2023-08-06T11:01:06;4.40;;;2.28;;
61960;SDS011;47923;42.506;24.192;2023-08-06T11:03:31;10.63;;;2.47;;
61960;SDS011;47923;42.506;24.192;2023-08-06T11:05:58;3.88;;;2.03;;
61960;SDS011;47923;42.506;24.192;2023-08-06T11:08:27;10.35;;;2.53;;
61960;SDS011;47923;42.506;24.192;2023-08-06T11:10:53;6.47;;;2.13;;
61960;SDS011;47923;42.506;24.192;2023-08-06T11:13:22;3.03;;;1.67;;
61960;SDS011;47923;42.506;24.192;2023-08-06T11:15:48;3.03;;;1.35;;
61960;SDS011;47923;42.506;24.192;2023-08-06T11:18:13;4.93;;;1.90;;
61960;SDS011;47923;42.506;24.192;2023-08-06T11:20:39;5.15;;;1.70;;
61960;SDS011;47923;42.506;24.192;2023-08-06T11:23:05;5.13;;;1.60;;
61960;SDS011;47923;42.506;24.192;2023-08-06T11:25:31;4.03;;;1.40;;
61960;SDS011;47923;42.506;24.192;2023-08-06T11:27:56;7.95;;;2.20;;
61960;SDS011;47923;42.506;24.192;2023-08-06T11:30:22;3.50;;;1.48;;
61960;SDS011;47923;42.506;24.192;2023-08-06T11:32:47;9.35;;;2.33;;
61960;SDS011;47923;42.506;24.192;2023-08-06T11:35:13;7.53;;;1.75;;
61960;SDS011;47923;42.506;24.192;2023-08-06T11:37:46;6.57;;;2.03;;
61960;SDS011;47923;42.506;24.192;2023-08-06T11:40:12;4.70;;;1.92;;
61960;SDS011;47923;42.506;24.192;2023-08-06T11:42:41;3.38;;;1.70;;
61960;SDS011;47923;42.506;24.192;2023-08-06T11:45:10;10.55;;;2.45;;
61960;SDS011;47923;42.506;24.192;2023-08-06T11:47:37;2.75;;;1.50;;
61960;SDS011;47923;42.506;24.192;2023-08-06T11:50:07;9.65;;;2.10;;
61960;SDS011;47923;42.506;24.192;2023-08-06T11:52:33;10.80;;;2.03;;
61960;SDS011;47923;42.506;24.192;2023-08-06T11:55:02;12.23;;;2.63;;
61960;SDS011;47923;42.506;24.192;2023-08-06T11:57:36;3.70;;;1.60;;
61960;SDS011;47923;42.506;24.192;2023-08-06T12:00:06;7.07;;;1.77;;
61960;SDS011;47923;42.506;24.192;2023-08-06T12:02:34;2.95;;;1.33;;
61960;SDS011;47923;42.506;24.192;2023-08-06T12:05:09;8.77;;;1.88;;
61960;SDS011;47923;42.506;24.192;2023-08-06T12:07:37;3.45;;;1.50;;
61960;SDS011;47923;42.506;24.192;2023-08-06T12:10:04;4.07;;;1.60;;
61960;SDS011;47923;42.506;24.192;2023-08-06T12:12:30;9.52;;;2.40;;
61960;SDS011;47923;42.506;24.192;2023-08-06T12:14:55;7.40;;;1.55;;
61960;SDS011;47923;42.506;24.192;2023-08-06T12:17:22;14.70;;;2.33;;
61960;SDS011;47923;42.506;24.192;2023-08-06T12:19:48;9.90;;;1.35;;
61960;SDS011;47923;42.506;24.192;2023-08-06T12:22:14;11.57;;;2.42;;
61960;SDS011;47923;42.506;24.192;2023-08-06T12:24:43;6.38;;;1.52;;
61960;SDS011;47923;42.506;24.192;2023-08-06T12:27:09;2.53;;;1.20;;
61960;SDS011;47923;42.506;24.192;2023-08-06T12:29:35;2.20;;;1.20;;
61960;SDS011;47923;42.506;24.192;2023-08-06T12:32:03;14.48;;;2.20;;
61960;SDS011;47923;42.506;24.192;2023-08-06T12:34:28;2.53;;;1.33;;
61960;SDS011;47923;42.506;24.192;2023-08-06T12:36:54;4.00;;;1.10;;
61960;SDS011;47923;42.506;24.192;2023-08-06T12:39:19;4.50;;;1.05;;
61960;SDS011;47923;42.506;24.192;2023-08-06T12:41:44;3.35;;;1.60;;
61960;SDS011;47923;42.506;24.192;2023-08-06T12:44:11;7.50;;;1.80;;
61960;SDS011;47923;42.506;24.192;2023-08-06T12:46:37;5.38;;;1.60;;
61960;SDS011;47923;42.506;24.192;2023-08-06T12:49:02;5.38;;;1.70;;
61960;SDS011;47923;42.506;24.192;2023-08-06T12:51:28;2.95;;;1.50;;
61960;SDS011;47923;42.506;24.192;2023-08-06T12:53:53;2.72;;;1.58;;
61960;SDS011;47923;42.506;24.192;2023-08-06T12:56:19;3.22;;;1.88;;
61960;SDS011;47923;42.506;24.192;2023-08-06T12:58:44;4.03;;;1.67;;
61960;SDS011;47923;42.506;24.192;2023-08-06T13:01:09;4.35;;;1.85;;
61960;SDS011;47923;42.506;24.192;2023-08-06T13:03:35;3.33;;;1.83;;
61960;SDS011;47923;42.506;24.192;2023-08-06T13:06:00;6.53;;;2.17;;
61960;SDS011;47923;42.506;24.192;2023-08-06T13:08:26;4.00;;;1.50;;
61960;SDS011;47923;42.506;24.192;2023-08-06T13:10:51;8.70;;;2.25;;
61960;SDS011;47923;42.506;24.192;2023-08-06T13:13:17;5.80;;;2.03;;
61960;SDS011;47923;42.506;24.192;2023-08-06T13:15:42;4.00;;;2.20;;
61960;SDS011;47923;42.506;24.192;2023-08-06T13:18:08;3.28;;;1.90;;
61960;SDS011;47923;42.506;24.192;2023-08-06T13:20:33;5.90;;;1.83;;
61960;SDS011;47923;42.506;24.192;2023-08-06T13:22:59;3.58;;;1.92;;
61960;SDS011;47923;42.506;24.192;2023-08-06T13:25:26;4.20;;;1.65;;
61960;SDS011;47923;42.506;24.192;2023-08-06T13:27:53;6.10;;;2.10;;
61960;SDS011;47923;42.506;24.192;2023-08-06T13:30:19;7.50;;;1.98;;
61960;SDS011;47923;42.506;24.192;2023-08-06T13:32:45;4.63;;;2.05;;
61960;SDS011;47923;42.506;24.192;2023-08-06T13:35:10;4.38;;;1.90;;
61960;SDS011;47923;42.506;24.192;2023-08-06T13:37:35;5.20;;;1.60;;
61960;SDS011;47923;42.506;24.192;2023-08-06T13:40:01;3.13;;;1.63;;
61960;SDS011;47923;42.506;24.192;2023-08-06T13:42:27;5.68;;;1.73;;
61960;SDS011;47923;42.506;24.192;2023-08-06T13:44:54;4.70;;;2.00;;
61960;SDS011;47923;42.506;24.192;2023-08-06T13:47:24;5.40;;;2.03;;
61960;SDS011;47923;42.506;24.192;2023-08-06T13:49:50;18.60;;;2.50;;
61960;SDS011;47923;42.506;24.192;2023-08-06T13:52:15;5.57;;;1.83;;
61960;SDS011;47923;42.506;24.192;2023-08-06T13:54:40;5.88;;;1.80;;
61960;SDS011;47923;42.506;24.192;2023-08-06T13:57:06;4.00;;;2.00;;
61960;SDS011;47923;42.506;24.192;2023-08-06T13:59:31;4.53;;;1.90;;
61960;SDS011;47923;42.506;24.192;2023-08-06T14:01:57;13.48;;;2.90;;
61960;SDS011;47923;42.506;24.192;2023-08-06T14:04:24;4.28;;;2.00;;
61960;SDS011;47923;42.506;24.192;2023-08-06T14:06:50;4.45;;;1.85;;
61960;SDS011;47923;42.506;24.192;2023-08-06T14:09:15;4.95;;;2.28;;
61960;SDS011;47923;42.506;24.192;2023-08-06T14:11:43;4.80;;;2.40;;
61960;SDS011;47923;42.506;24.192;2023-08-06T14:14:09;5.88;;;2.30;;
61960;SDS011;47923;42.506;24.192;2023-08-06T14:16:35;7.90;;;2.53;;
61960;SDS011;47923;42.506;24.192;2023-08-06T14:19:01;13.77;;;3.15;;
61960;SDS011;47923;42.506;24.192;2023-08-06T14:21:26;11.25;;;4.25;;
61960;SDS011;47923;42.506;24.192;2023-08-06T14:23:51;6.18;;;3.17;;
61960;SDS011;47923;42.506;24.192;2023-08-06T14:26:17;7.00;;;3.50;;
61960;SDS011;47923;42.506;24.192;2023-08-06T14:28:43;5.18;;;2.75;;
61960;SDS011;47923;42.506;24.192;2023-08-06T14:31:08;15.73;;;3.90;;
61960;SDS011;47923;42.506;24.192;2023-08-06T14:33:34;22.80;;;3.88;;
61960;SDS011;47923;42.506;24.192;2023-08-06T14:35:59;5.68;;;2.80;;
61960;SDS011;47923;42.506;24.192;2023-08-06T14:38:25;7.05;;;2.95;;
61960;SDS011;47923;42.506;24.192;2023-08-06T14:40:50;5.60;;;2.70;;
61960;SDS011;47923;42.506;24.192;2023-08-06T14:43:16;5.45;;;2.50;;
61960;SDS011;47923;42.506;24.192;2023-08-06T14:45:42;11.88;;;3.08;;
61960;SDS011;47923;42.506;24.192;2023-08-06T14:48:07;5.88;;;2.75;;
61960;SDS011;47923;42.506;24.192;2023-08-06T14:50:33;8.82;;;2.88;;